sensor_id;sensor_type;location;lat;lon;timestamp;temperature;humidity
26224;DHT22;14820;48.682;8.890;2024-01-15T00:02:09;-1.90;99.90
26224;DHT22;14820;48.682;8.890;2024-01-15T00:04:39;-1.90;99.90
26224;DHT22;14820;48.682;8.890;2024-01-15T00:07:09;-1.90;99.90
26224;DHT22;14820;48.682;8.890;2024-01-15T00:09:35;-1.90;99.90
26224;DHT22;14820;48.682;8.890;2024-01-15T00:12:01;-1.90;99.90
26224;DHT22;14820;48.682;8.890;2024-01-15T00:14:27;-1.90;99.90
26224;DHT22;14820;48.682;8.890;2024-01-15T00:16:53;-1.90;99.90
26224;DHT22;14820;48.682;8.890;2024-01-15T00:19:21;-1.90;99.90
26224;DHT22;14820;48.682;8.890;2024-01-15T00:21:47;-1.90;99.90
26224;DHT22;14820;48.682;8.890;2024-01-15T00:24:13;-1.90;99.90
26224;DHT22;14820;48.682;8.890;2024-01-15T00:26:39;-1.90;99.90
26224;DHT22;14820;48.682;8.890;2024-01-15T00:29:06;-1.90;99.90
26224;DHT22;14820;48.682;8.890;2024-01-15T00:31:32;-1.90;99.90
26224;DHT22;14820;48.682;8.890;2024-01-15T00:33:58;-1.80;99.90
26224;DHT22;14820;48.682;8.890;2024-01-15T00:36:23;-1.80;99.90
26224;DHT22;14820;48.682;8.890;2024-01-15T00:38:49;-1.80;99.90
26224;DHT22;14820;48.682;8.890;2024-01-15T00:41:15;-1.80;99.90
26224;DHT22;14820;48.682;8.890;2024-01-15T00:43:41;-1.80;99.90
26224;DHT22;14820;48.682;8.890;2024-01-15T00:46:07;-1.80;99.90
26224;DHT22;14820;48.682;8.890;2024-01-15T00:48:32;-1.90;99.90
26224;DHT22;14820;48.682;8.890;2024-01-15T00:50:58;-1.90;99.90
26224;DHT22;14820;48.682;8.890;2024-01-15T00:53:25;-1.80;99.90
26224;DHT22;14820;48.682;8.890;2024-01-15T00:55:50;-1.90;99.90
26224;DHT22;14820;48.682;8.890;2024-01-15T00:58:16;-1.80;99.90
26224;DHT22;14820;48.682;8.890;2024-01-15T01:00:42;-1.90;99.90
26224;DHT22;14820;48.682;8.890;2024-01-15T01:03:08;-1.80;99.90
26224;DHT22;14820;48.682;8.890;2024-01-15T01:05:34;-1.80;99.90
26224;DHT22;14820;48.682;8.890;2024-01-15T01:08:00;-1.80;99.90
26224;DHT22;14820;48.682;8.890;2024-01-15T01:10:27;-1.80;99.90
26224;DHT22;14820;48.682;8.890;2024-01-15T01:12:52;-1.80;99.90
26224;DHT22;14820;48.682;8.890;2024-01-15T01:15:18;-1.80;99.90
26224;DHT22;14820;48.682;8.890;2024-01-15T01:17:44;-1.70;99.90
26224;DHT22;14820;48.682;8.890;2024-01-15T01:20:09;-1.70;99.90
26224;DHT22;14820;48.682;8.890;2024-01-15T01:22:36;-1.70;99.90
26224;DHT22;14820;48.682;8.890;2024-01-15T01:25:02;-1.70;99.90
26224;DHT22;14820;48.682;8.890;2024-01-15T01:27:28;-1.70;99.90
26224;DHT22;14820;48.682;8.890;2024-01-15T01:29:53;-1.70;99.90
26224;DHT22;14820;48.682;8.890;2024-01-15T01:32:19;-1.60;99.90
26224;DHT22;14820;48.682;8.890;2024-01-15T01:34:45;-1.60;99.90
26224;DHT22;14820;48.682;8.890;2024-01-15T01:37:11;-1.70;99.90
26224;DHT22;14820;48.682;8.890;2024-01-15T01:39:41;-1.70;99.90
26224;DHT22;14820;48.682;8.890;2024-01-15T01:42:07;-1.70;99.90
26224;DHT22;14820;48.682;8.890;2024-01-15T01:44:33;-1.70;99.90
26224;DHT22;14820;48.682;8.890;2024-01-15T01:46:59;-1.70;99.90
26224;DHT22;14820;48.682;8.890;2024-01-15T01:49:28;-1.70;99.90
26224;DHT22;14820;48.682;8.890;2024-01-15T01:51:59;-1.70;99.90
26224;DHT22;14820;48.682;8.890;2024-01-15T01:54:27;-1.70;99.90
26224;DHT22;14820;48.682;8.890;2024-01-15T01:56:54;-1.70;99.90
26224;DHT22;14820;48.682;8.890;2024-01-15T01:59:21;-1.70;99.90
26224;DHT22;14820;48.682;8.890;2024-01-15T02:01:48;-1.70;99.90
26224;DHT22;14820;48.682;8.890;2024-01-15T02:04:15;-1.80;99.90
26224;DHT22;14820;48.682;8.890;2024-01-15T02:06:41;-1.80;99.90
26224;DHT22;14820;48.682;8.890;2024-01-15T02:09:08;-1.80;99.90
26224;DHT22;14820;48.682;8.890;2024-01-15T02:11:35;-1.80;99.90
26224;DHT22;14820;48.682;8.890;2024-01-15T02:14:01;-1.80;99.90
26224;DHT22;14820;48.682;8.890;2024-01-15T02:16:27;-1.80;99.90
26224;DHT22;14820;48.682;8.890;2024-01-15T02:18:53;-1.80;99.90
26224;DHT22;14820;48.682;8.890;2024-01-15T02:21:19;-1.80;99.90
26224;DHT22;14820;48.682;8.890;2024-01-15T02:23:44;-1.80;99.90
26224;DHT22;14820;48.682;8.890;2024-01-15T02:26:10;-1.80;99.90
26224;DHT22;14820;48.682;8.890;2024-01-15T02:28:36;-1.80;99.90
26224;DHT22;14820;48.682;8.890;2024-01-15T02:31:02;-1.80;99.90
26224;DHT22;14820;48.682;8.890;2024-01-15T02:33:27;-1.80;99.90
26224;DHT22;14820;48.682;8.890;2024-01-15T02:35:53;-1.80;99.90
26224;DHT22;14820;48.682;8.890;2024-01-15T02:38:19;-1.80;99.90
26224;DHT22;14820;48.682;8.890;2024-01-15T02:40:45;-1.80;99.90
26224;DHT22;14820;48.682;8.890;2024-01-15T02:43:11;-1.80;99.90
26224;DHT22;14820;48.682;8.890;2024-01-15T02:45:37;-1.80;99.90
26224;DHT22;14820;48.682;8.890;2024-01-15T02:48:03;-1.80;99.90
26224;DHT22;14820;48.682;8.890;2024-01-15T02:50:28;-1.80;99.90
26224;DHT22;14820;48.682;8.890;2024-01-15T02:52:54;-1.80;99.90
26224;DHT22;14820;48.682;8.890;2024-01-15T02:55:20;-1.80;99.90
26224;DHT22;14820;48.682;8.890;2024-01-15T02:57:45;-1.80;99.90
26224;DHT22;14820;48.682;8.890;2024-01-15T03:00:11;-1.80;99.90
26224;DHT22;14820;48.682;8.890;2024-01-15T03:02:38;-1.70;99.90
26224;DHT22;14820;48.682;8.890;2024-01-15T03:05:12;-1.70;99.90
26224;DHT22;14820;48.682;8.890;2024-01-15T03:07:38;-1.70;99.90
26224;DHT22;14820;48.682;8.890;2024-01-15T03:10:05;-1.70;99.90
26224;DHT22;14820;48.682;8.890;2024-01-15T03:12:31;-1.70;99.90
26224;DHT22;14820;48.682;8.890;2024-01-15T03:14:57;-1.70;99.90
26224;DHT22;14820;48.682;8.890;2024-01-15T03:17:22;-1.70;99.90
26224;DHT22;14820;48.682;8.890;2024-01-15T03:19:48;-1.70;99.90
26224;DHT22;14820;48.682;8.890;2024-01-15T03:22:15;-1.60;99.90
26224;DHT22;14820;48.682;8.890;2024-01-15T03:24:41;-1.60;99.90
26224;DHT22;14820;48.682;8.890;2024-01-15T03:27:06;-1.60;99.90
26224;DHT22;14820;48.682;8.890;2024-01-15T03:29:32;-1.50;99.90
26224;DHT22;14820;48.682;8.890;2024-01-15T03:31:58;-1.50;99.90
26224;DHT22;14820;48.682;8.890;2024-01-15T03:34:23;-1.40;99.90
26224;DHT22;14820;48.682;8.890;2024-01-15T03:36:49;-1.40;99.90
26224;DHT22;14820;48.682;8.890;2024-01-15T03:39:15;-1.30;99.90
26224;DHT22;14820;48.682;8.890;2024-01-15T03:41:41;-1.30;99.90
26224;DHT22;14820;48.682;8.890;2024-01-15T03:44:06;-1.30;99.90
26224;DHT22;14820;48.682;8.890;2024-01-15T03:46:32;-1.30;99.90
26224;DHT22;14820;48.682;8.890;2024-01-15T03:48:58;-1.30;99.90
26224;DHT22;14820;48.682;8.890;2024-01-15T03:51:23;-1.30;99.90
26224;DHT22;14820;48.682;8.890;2024-01-15T03:53:49;-1.30;99.90
26224;DHT22;14820;48.682;8.890;2024-01-15T03:56:15;-1.30;99.90
26224;DHT22;14820;48.682;8.890;2024-01-15T03:58:40;-1.30;99.90
26224;DHT22;14820;48.682;8.890;2024-01-15T04:01:09;-1.30;99.90
26224;DHT22;14820;48.682;8.890;2024-01-15T04:03:35;-1.30;99.90
26224;DHT22;14820;48.682;8.890;2024-01-15T04:06:01;-1.20;99.90
26224;DHT22;14820;48.682;8.890;2024-01-15T04:08:27;-1.20;99.90
26224;DHT22;14820;48.682;8.890;2024-01-15T04:10:52;-1.20;99.90
26224;DHT22;14820;48.682;8.890;2024-01-15T04:13:18;-1.20;99.90
26224;DHT22;14820;48.682;8.890;2024-01-15T04:15:44;-1.20;99.90
26224;DHT22;14820;48.682;8.890;2024-01-15T04:18:09;-1.20;99.90
26224;DHT22;14820;48.682;8.890;2024-01-15T04:20:35;-1.20;99.90
26224;DHT22;14820;48.682;8.890;2024-01-15T04:23:01;-1.20;99.90
26224;DHT22;14820;48.682;8.890;2024-01-15T04:25:27;-1.20;99.90
26224;DHT22;14820;48.682;8.890;2024-01-15T04:27:52;-1.20;99.90
26224;DHT22;14820;48.682;8.890;2024-01-15T04:30:18;-1.20;99.90
26224;DHT22;14820;48.682;8.890;2024-01-15T04:32:43;-1.10;99.90
26224;DHT22;14820;48.682;8.890;2024-01-15T04:35:09;-1.10;99.90
26224;DHT22;14820;48.682;8.890;2024-01-15T04:37:35;-1.10;99.90
26224;DHT22;14820;48.682;8.890;2024-01-15T04:40:00;-1.20;99.90
26224;DHT22;14820;48.682;8.890;2024-01-15T04:42:26;-1.20;99.90
26224;DHT22;14820;48.682;8.890;2024-01-15T04:44:51;-1.10;99.90
26224;DHT22;14820;48.682;8.890;2024-01-15T04:47:17;-1.10;99.90
26224;DHT22;14820;48.682;8.890;2024-01-15T04:49:43;-1.20;99.90
26224;DHT22;14820;48.682;8.890;2024-01-15T04:52:08;-1.10;99.90
26224;DHT22;14820;48.682;8.890;2024-01-15T04:54:36;-1.10;99.90
26224;DHT22;14820;48.682;8.890;2024-01-15T04:57:01;-1.10;99.90
26224;DHT22;14820;48.682;8.890;2024-01-15T04:59:28;-1.10;99.90
26224;DHT22;14820;48.682;8.890;2024-01-15T05:01:54;-1.10;99.90
26224;DHT22;14820;48.682;8.890;2024-01-15T05:04:20;-1.10;99.90
26224;DHT22;14820;48.682;8.890;2024-01-15T05:06:45;-1.10;99.90
26224;DHT22;14820;48.682;8.890;2024-01-15T05:09:11;-1.10;99.90
26224;DHT22;14820;48.682;8.890;2024-01-15T05:11:39;-1.10;99.90
26224;DHT22;14820;48.682;8.890;2024-01-15T05:14:04;-1.10;99.90
26224;DHT22;14820;48.682;8.890;2024-01-15T05:16:30;-1.10;99.90
26224;DHT22;14820;48.682;8.890;2024-01-15T05:18:55;-1.10;99.90
26224;DHT22;14820;48.682;8.890;2024-01-15T05:21:21;-1.10;99.90
26224;DHT22;14820;48.682;8.890;2024-01-15T05:23:47;-1.10;99.90
26224;DHT22;14820;48.682;8.890;2024-01-15T05:26:12;-1.00;99.90
26224;DHT22;14820;48.682;8.890;2024-01-15T05:28:40;-1.00;99.90
26224;DHT22;14820;48.682;8.890;2024-01-15T05:31:06;-1.10;99.90
26224;DHT22;14820;48.682;8.890;2024-01-15T05:33:31;-1.00;99.90
26224;DHT22;14820;48.682;8.890;2024-01-15T05:35:57;-1.00;99.90
26224;DHT22;14820;48.682;8.890;2024-01-15T05:38:24;-1.10;99.90
26224;DHT22;14820;48.682;8.890;2024-01-15T05:40:49;-1.10;99.90
26224;DHT22;14820;48.682;8.890;2024-01-15T05:43:15;-1.10;99.90
26224;DHT22;14820;48.682;8.890;2024-01-15T05:45:43;-1.10;99.90
26224;DHT22;14820;48.682;8.890;2024-01-15T05:48:10;-1.10;99.90
26224;DHT22;14820;48.682;8.890;2024-01-15T05:50:35;-1.00;99.90
26224;DHT22;14820;48.682;8.890;2024-01-15T05:53:01;-1.00;99.90
26224;DHT22;14820;48.682;8.890;2024-01-15T05:55:28;-1.00;99.90
26224;DHT22;14820;48.682;8.890;2024-01-15T05:57:53;-1.10;99.90
26224;DHT22;14820;48.682;8.890;2024-01-15T06:00:19;-1.10;99.90
26224;DHT22;14820;48.682;8.890;2024-01-15T06:02:44;-1.10;99.90
26224;DHT22;14820;48.682;8.890;2024-01-15T06:05:10;-1.10;99.90
26224;DHT22;14820;48.682;8.890;2024-01-15T06:07:36;-1.20;99.90
26224;DHT22;14820;48.682;8.890;2024-01-15T06:10:02;-1.20;99.90
26224;DHT22;14820;48.682;8.890;2024-01-15T06:12:28;-1.20;99.90
26224;DHT22;14820;48.682;8.890;2024-01-15T06:14:54;-1.20;99.90
26224;DHT22;14820;48.682;8.890;2024-01-15T06:17:19;-1.20;99.90
26224;DHT22;14820;48.682;8.890;2024-01-15T06:19:45;-1.20;99.90
26224;DHT22;14820;48.682;8.890;2024-01-15T06:22:11;-1.20;99.90
26224;DHT22;14820;48.682;8.890;2024-01-15T06:24:36;-1.10;99.90
26224;DHT22;14820;48.682;8.890;2024-01-15T06:27:02;-1.10;99.90
26224;DHT22;14820;48.682;8.890;2024-01-15T06:29:28;-1.10;99.90
26224;DHT22;14820;48.682;8.890;2024-01-15T06:31:54;-1.10;99.90
26224;DHT22;14820;48.682;8.890;2024-01-15T06:34:19;-1.00;99.90
26224;DHT22;14820;48.682;8.890;2024-01-15T06:36:45;-1.00;99.90
26224;DHT22;14820;48.682;8.890;2024-01-15T06:39:10;-1.00;99.90
26224;DHT22;14820;48.682;8.890;2024-01-15T06:41:36;-1.00;99.90
26224;DHT22;14820;48.682;8.890;2024-01-15T06:44:12;-1.00;99.90
26224;DHT22;14820;48.682;8.890;2024-01-15T06:46:44;-1.00;99.90
26224;DHT22;14820;48.682;8.890;2024-01-15T06:49:10;-1.00;99.90
26224;DHT22;14820;48.682;8.890;2024-01-15T06:51:36;-1.00;99.90
26224;DHT22;14820;48.682;8.890;2024-01-15T06:54:02;-1.00;99.90
26224;DHT22;14820;48.682;8.890;2024-01-15T06:56:28;-0.90;99.90
26224;DHT22;14820;48.682;8.890;2024-01-15T06:58:53;-1.00;99.90
26224;DHT22;14820;48.682;8.890;2024-01-15T07:01:19;-1.00;99.90
26224;DHT22;14820;48.682;8.890;2024-01-15T07:03:45;-1.00;99.90
26224;DHT22;14820;48.682;8.890;2024-01-15T07:06:11;-1.00;99.90
26224;DHT22;14820;48.682;8.890;2024-01-15T07:08:39;-1.00;99.90
26224;DHT22;14820;48.682;8.890;2024-01-15T07:11:06;-0.90;99.90
26224;DHT22;14820;48.682;8.890;2024-01-15T07:13:32;-1.00;99.90
26224;DHT22;14820;48.682;8.890;2024-01-15T07:15:57;-1.00;99.90
26224;DHT22;14820;48.682;8.890;2024-01-15T07:18:23;-0.90;99.90
26224;DHT22;14820;48.682;8.890;2024-01-15T07:20:49;-0.90;99.90
26224;DHT22;14820;48.682;8.890;2024-01-15T07:23:15;-1.00;99.90
26224;DHT22;14820;48.682;8.890;2024-01-15T07:25:40;-0.90;99.90
26224;DHT22;14820;48.682;8.890;2024-01-15T07:28:06;-0.90;99.90
26224;DHT22;14820;48.682;8.890;2024-01-15T07:30:32;-0.90;99.90
26224;DHT22;14820;48.682;8.890;2024-01-15T07:32:57;-0.90;99.90
26224;DHT22;14820;48.682;8.890;2024-01-15T07:35:23;-0.90;99.90
26224;DHT22;14820;48.682;8.890;2024-01-15T07:37:49;-0.90;99.90
26224;DHT22;14820;48.682;8.890;2024-01-15T07:40:14;-0.90;99.90
26224;DHT22;14820;48.682;8.890;2024-01-15T07:42:40;-0.90;99.90
26224;DHT22;14820;48.682;8.890;2024-01-15T07:45:08;-0.90;99.90
26224;DHT22;14820;48.682;8.890;2024-01-15T07:47:34;-0.90;99.90
26224;DHT22;14820;48.682;8.890;2024-01-15T07:50:00;-0.90;99.90
26224;DHT22;14820;48.682;8.890;2024-01-15T07:52:25;-0.80;99.90
26224;DHT22;14820;48.682;8.890;2024-01-15T07:54:51;-0.80;99.90
26224;DHT22;14820;48.682;8.890;2024-01-15T07:57:17;-0.80;99.90
26224;DHT22;14820;48.682;8.890;2024-01-15T07:59:42;-0.80;99.90
26224;DHT22;14820;48.682;8.890;2024-01-15T08:02:08;-0.80;99.90
26224;DHT22;14820;48.682;8.890;2024-01-15T08:04:34;-0.80;99.90
26224;DHT22;14820;48.682;8.890;2024-01-15T08:06:59;-0.80;99.90
26224;DHT22;14820;48.682;8.890;2024-01-15T08:09:25;-0.80;99.90
26224;DHT22;14820;48.682;8.890;2024-01-15T08:11:51;-0.80;99.90
26224;DHT22;14820;48.682;8.890;2024-01-15T08:14:17;-0.80;99.90
26224;DHT22;14820;48.682;8.890;2024-01-15T08:16:43;-0.80;99.90
26224;DHT22;14820;48.682;8.890;2024-01-15T08:19:09;-0.70;99.90
26224;DHT22;14820;48.682;8.890;2024-01-15T08:21:34;-0.70;99.90
26224;DHT22;14820;48.682;8.890;2024-01-15T08:24:02;-0.70;99.90
26224;DHT22;14820;48.682;8.890;2024-01-15T08:26:28;-0.70;99.90
26224;DHT22;14820;48.682;8.890;2024-01-15T08:28:54;-0.70;99.90
26224;DHT22;14820;48.682;8.890;2024-01-15T08:31:20;-0.70;99.90
26224;DHT22;14820;48.682;8.890;2024-01-15T08:33:46;-0.70;99.90
26224;DHT22;14820;48.682;8.890;2024-01-15T08:36:12;-0.60;99.90
26224;DHT22;14820;48.682;8.890;2024-01-15T08:38:38;-0.60;99.90
26224;DHT22;14820;48.682;8.890;2024-01-15T08:41:04;-0.60;99.90
26224;DHT22;14820;48.682;8.890;2024-01-15T08:43:29;-0.60;99.90
26224;DHT22;14820;48.682;8.890;2024-01-15T08:45:56;-0.60;99.90
26224;DHT22;14820;48.682;8.890;2024-01-15T08:48:22;-0.60;99.90
26224;DHT22;14820;48.682;8.890;2024-01-15T08:50:48;-0.60;99.90
26224;DHT22;14820;48.682;8.890;2024-01-15T08:53:14;-0.50;99.90
26224;DHT22;14820;48.682;8.890;2024-01-15T08:55:40;-0.50;99.90
26224;DHT22;14820;48.682;8.890;2024-01-15T08:58:08;-0.50;99.90
26224;DHT22;14820;48.682;8.890;2024-01-15T09:00:33;-0.50;99.90
26224;DHT22;14820;48.682;8.890;2024-01-15T09:02:59;-0.40;99.90
26224;DHT22;14820;48.682;8.890;2024-01-15T09:05:25;-0.40;99.90
26224;DHT22;14820;48.682;8.890;2024-01-15T09:07:50;-0.40;99.90
26224;DHT22;14820;48.682;8.890;2024-01-15T09:10:18;-0.40;99.90
26224;DHT22;14820;48.682;8.890;2024-01-15T09:12:44;-0.40;99.90
26224;DHT22;14820;48.682;8.890;2024-01-15T09:15:09;-0.40;99.90
26224;DHT22;14820;48.682;8.890;2024-01-15T09:17:35;-0.40;99.90
26224;DHT22;14820;48.682;8.890;2024-01-15T09:20:01;-0.40;99.90
26224;DHT22;14820;48.682;8.890;2024-01-15T09:22:27;-0.40;99.90
26224;DHT22;14820;48.682;8.890;2024-01-15T09:24:52;-0.30;99.90
26224;DHT22;14820;48.682;8.890;2024-01-15T09:27:18;-0.30;99.90
26224;DHT22;14820;48.682;8.890;2024-01-15T09:29:44;-0.30;99.90
26224;DHT22;14820;48.682;8.890;2024-01-15T09:32:11;-0.20;99.90
26224;DHT22;14820;48.682;8.890;2024-01-15T09:34:38;-0.30;99.90
26224;DHT22;14820;48.682;8.890;2024-01-15T09:37:04;-0.20;99.90
26224;DHT22;14820;48.682;8.890;2024-01-15T09:39:30;-0.20;99.90
26224;DHT22;14820;48.682;8.890;2024-01-15T09:41:56;-0.20;99.90
26224;DHT22;14820;48.682;8.890;2024-01-15T09:44:23;-0.20;99.90
26224;DHT22;14820;48.682;8.890;2024-01-15T09:46:49;-0.20;99.90
26224;DHT22;14820;48.682;8.890;2024-01-15T09:49:18;-0.10;99.90
26224;DHT22;14820;48.682;8.890;2024-01-15T09:51:44;-0.10;99.90
26224;DHT22;14820;48.682;8.890;2024-01-15T09:54:10;-0.10;99.90
26224;DHT22;14820;48.682;8.890;2024-01-15T09:56:39;0.00;99.90
26224;DHT22;14820;48.682;8.890;2024-01-15T09:59:05;0.00;99.90
26224;DHT22;14820;48.682;8.890;2024-01-15T10:01:32;0.00;99.90
26224;DHT22;14820;48.682;8.890;2024-01-15T10:03:59;0.10;99.90
26224;DHT22;14820;48.682;8.890;2024-01-15T10:06:26;0.10;99.90
26224;DHT22;14820;48.682;8.890;2024-01-15T10:08:54;0.10;99.90
26224;DHT22;14820;48.682;8.890;2024-01-15T10:11:21;0.10;99.90
26224;DHT22;14820;48.682;8.890;2024-01-15T10:13:47;0.10;99.90
26224;DHT22;14820;48.682;8.890;2024-01-15T10:16:16;0.10;99.90
26224;DHT22;14820;48.682;8.890;2024-01-15T10:18:42;0.10;99.90
26224;DHT22;14820;48.682;8.890;2024-01-15T10:21:07;0.20;99.90
26224;DHT22;14820;48.682;8.890;2024-01-15T10:23:33;0.10;99.90
26224;DHT22;14820;48.682;8.890;2024-01-15T10:26:00;0.20;99.90
26224;DHT22;14820;48.682;8.890;2024-01-15T10:28:29;0.20;99.90
26224;DHT22;14820;48.682;8.890;2024-01-15T10:30:57;0.10;99.90
26224;DHT22;14820;48.682;8.890;2024-01-15T10:33:24;0.20;99.90
26224;DHT22;14820;48.682;8.890;2024-01-15T10:35:57;0.20;99.90
26224;DHT22;14820;48.682;8.890;2024-01-15T10:38:24;0.20;99.90
26224;DHT22;14820;48.682;8.890;2024-01-15T10:40:54;0.20;99.90
26224;DHT22;14820;48.682;8.890;2024-01-15T10:43:21;0.20;99.90
26224;DHT22;14820;48.682;8.890;2024-01-15T10:45:48;0.20;99.90
26224;DHT22;14820;48.682;8.890;2024-01-15T10:48:16;0.20;99.90
26224;DHT22;14820;48.682;8.890;2024-01-15T10:50:46;0.20;99.90
26224;DHT22;14820;48.682;8.890;2024-01-15T10:53:16;0.20;99.90
26224;DHT22;14820;48.682;8.890;2024-01-15T10:55:43;0.20;99.90
26224;DHT22;14820;48.682;8.890;2024-01-15T10:58:09;0.20;99.90
26224;DHT22;14820;48.682;8.890;2024-01-15T11:00:35;0.30;99.90
26224;DHT22;14820;48.682;8.890;2024-01-15T11:03:03;0.20;99.90
26224;DHT22;14820;48.682;8.890;2024-01-15T11:05:37;0.30;99.90
26224;DHT22;14820;48.682;8.890;2024-01-15T11:08:05;0.30;99.90
26224;DHT22;14820;48.682;8.890;2024-01-15T11:10:50;0.30;99.90
26224;DHT22;14820;48.682;8.890;2024-01-15T11:13:45;0.30;99.90
26224;DHT22;14820;48.682;8.890;2024-01-15T11:16:13;0.30;99.90
26224;DHT22;14820;48.682;8.890;2024-01-15T11:18:48;0.30;99.90
26224;DHT22;14820;48.682;8.890;2024-01-15T11:21:27;0.30;99.90
26224;DHT22;14820;48.682;8.890;2024-01-15T11:23:57;0.30;99.90
26224;DHT22;14820;48.682;8.890;2024-01-15T11:26:44;0.30;99.90
26224;DHT22;14820;48.682;8.890;2024-01-15T11:34:50;0.30;99.90
26224;DHT22;14820;48.682;8.890;2024-01-15T11:37:16;0.30;99.90
26224;DHT22;14820;48.682;8.890;2024-01-15T11:39:42;0.30;99.90
26224;DHT22;14820;48.682;8.890;2024-01-15T11:42:10;0.30;99.90
26224;DHT22;14820;48.682;8.890;2024-01-15T11:44:37;0.30;99.90
26224;DHT22;14820;48.682;8.890;2024-01-15T11:47:08;0.30;99.90
26224;DHT22;14820;48.682;8.890;2024-01-15T11:50:00;0.20;99.90
26224;DHT22;14820;48.682;8.890;2024-01-15T11:52:31;0.20;99.90
26224;DHT22;14820;48.682;8.890;2024-01-15T11:57:53;0.20;99.90
26224;DHT22;14820;48.682;8.890;2024-01-15T12:00:22;0.10;99.90
26224;DHT22;14820;48.682;8.890;2024-01-15T12:02:49;0.10;99.90
26224;DHT22;14820;48.682;8.890;2024-01-15T12:05:17;0.10;99.90
26224;DHT22;14820;48.682;8.890;2024-01-15T12:07:44;0.10;99.90
26224;DHT22;14820;48.682;8.890;2024-01-15T12:10:18;0.10;99.90
26224;DHT22;14820;48.682;8.890;2024-01-15T12:15:19;0.10;99.90
26224;DHT22;14820;48.682;8.890;2024-01-15T12:17:45;0.10;99.90
26224;DHT22;14820;48.682;8.890;2024-01-15T12:20:13;0.10;99.90
26224;DHT22;14820;48.682;8.890;2024-01-15T12:22:39;0.10;99.90
26224;DHT22;14820;48.682;8.890;2024-01-15T12:25:05;0.10;99.90
26224;DHT22;14820;48.682;8.890;2024-01-15T12:27:31;0.00;99.90
26224;DHT22;14820;48.682;8.890;2024-01-15T12:29:58;0.00;99.90
26224;DHT22;14820;48.682;8.890;2024-01-15T12:32:24;0.00;99.90
26224;DHT22;14820;48.682;8.890;2024-01-15T12:34:50;0.00;99.90
26224;DHT22;14820;48.682;8.890;2024-01-15T12:37:19;0.00;99.90
26224;DHT22;14820;48.682;8.890;2024-01-15T12:39:46;0.00;99.90
26224;DHT22;14820;48.682;8.890;2024-01-15T12:42:11;0.10;99.90
26224;DHT22;14820;48.682;8.890;2024-01-15T12:44:37;0.00;99.90
26224;DHT22;14820;48.682;8.890;2024-01-15T12:47:06;0.10;99.90
26224;DHT22;14820;48.682;8.890;2024-01-15T12:49:32;0.10;99.90
26224;DHT22;14820;48.682;8.890;2024-01-15T12:51:59;0.10;99.90
26224;DHT22;14820;48.682;8.890;2024-01-15T12:54:25;0.10;99.90
26224;DHT22;14820;48.682;8.890;2024-01-15T12:56:51;0.10;99.90
26224;DHT22;14820;48.682;8.890;2024-01-15T12:59:17;0.10;99.90
26224;DHT22;14820;48.682;8.890;2024-01-15T13:01:44;0.10;99.90
26224;DHT22;14820;48.682;8.890;2024-01-15T13:04:10;0.10;99.90
26224;DHT22;14820;48.682;8.890;2024-01-15T13:06:35;0.10;99.90
26224;DHT22;14820;48.682;8.890;2024-01-15T13:09:03;0.10;99.90
26224;DHT22;14820;48.682;8.890;2024-01-15T13:11:33;0.10;99.90
26224;DHT22;14820;48.682;8.890;2024-01-15T13:13:59;0.10;99.90
26224;DHT22;14820;48.682;8.890;2024-01-15T13:16:25;0.20;99.90
26224;DHT22;14820;48.682;8.890;2024-01-15T13:18:54;0.20;99.90
26224;DHT22;14820;48.682;8.890;2024-01-15T13:21:19;0.10;99.90
26224;DHT22;14820;48.682;8.890;2024-01-15T13:23:45;0.20;99.90
26224;DHT22;14820;48.682;8.890;2024-01-15T13:26:11;0.10;99.90
26224;DHT22;14820;48.682;8.890;2024-01-15T13:28:37;0.10;99.90
26224;DHT22;14820;48.682;8.890;2024-01-15T13:31:03;0.10;99.90
26224;DHT22;14820;48.682;8.890;2024-01-15T13:33:30;0.10;99.90
26224;DHT22;14820;48.682;8.890;2024-01-15T13:35:55;0.10;99.90
26224;DHT22;14820;48.682;8.890;2024-01-15T13:38:21;0.10;99.90
26224;DHT22;14820;48.682;8.890;2024-01-15T13:40:47;0.20;99.90
26224;DHT22;14820;48.682;8.890;2024-01-15T13:43:13;0.20;99.90
26224;DHT22;14820;48.682;8.890;2024-01-15T13:45:42;0.20;99.90
26224;DHT22;14820;48.682;8.890;2024-01-15T13:48:08;0.20;99.90
26224;DHT22;14820;48.682;8.890;2024-01-15T13:50:36;0.20;99.90
26224;DHT22;14820;48.682;8.890;2024-01-15T13:53:03;0.20;99.90
26224;DHT22;14820;48.682;8.890;2024-01-15T13:55:29;0.20;99.90
26224;DHT22;14820;48.682;8.890;2024-01-15T13:57:55;0.20;99.90
26224;DHT22;14820;48.682;8.890;2024-01-15T14:00:21;0.20;99.90
26224;DHT22;14820;48.682;8.890;2024-01-15T14:02:47;0.20;99.90
26224;DHT22;14820;48.682;8.890;2024-01-15T14:05:13;0.20;99.90
26224;DHT22;14820;48.682;8.890;2024-01-15T14:07:39;0.20;99.90
26224;DHT22;14820;48.682;8.890;2024-01-15T14:10:05;0.20;99.90
26224;DHT22;14820;48.682;8.890;2024-01-15T14:12:33;0.20;99.90
26224;DHT22;14820;48.682;8.890;2024-01-15T14:15:00;0.20;99.90
26224;DHT22;14820;48.682;8.890;2024-01-15T14:17:26;0.20;99.90
26224;DHT22;14820;48.682;8.890;2024-01-15T14:19:51;0.20;99.90
26224;DHT22;14820;48.682;8.890;2024-01-15T14:22:17;0.20;99.90
26224;DHT22;14820;48.682;8.890;2024-01-15T14:24:43;0.30;99.90
26224;DHT22;14820;48.682;8.890;2024-01-15T14:27:08;0.20;99.90
26224;DHT22;14820;48.682;8.890;2024-01-15T14:29:35;0.10;99.90
26224;DHT22;14820;48.682;8.890;2024-01-15T14:32:01;0.10;99.90
26224;DHT22;14820;48.682;8.890;2024-01-15T14:34:27;0.00;99.90
26224;DHT22;14820;48.682;8.890;2024-01-15T14:36:53;0.00;99.90
26224;DHT22;14820;48.682;8.890;2024-01-15T14:39:20;0.00;99.90
26224;DHT22;14820;48.682;8.890;2024-01-15T14:41:46;-0.20;99.90
26224;DHT22;14820;48.682;8.890;2024-01-15T14:44:12;-0.10;99.90
26224;DHT22;14820;48.682;8.890;2024-01-15T14:46:39;-0.20;99.90
26224;DHT22;14820;48.682;8.890;2024-01-15T14:49:04;-0.20;99.90
26224;DHT22;14820;48.682;8.890;2024-01-15T14:51:30;-0.30;99.90
26224;DHT22;14820;48.682;8.890;2024-01-15T14:53:56;-0.30;99.90
26224;DHT22;14820;48.682;8.890;2024-01-15T14:56:22;-0.30;99.90
26224;DHT22;14820;48.682;8.890;2024-01-15T14:58:47;-0.30;99.90
26224;DHT22;14820;48.682;8.890;2024-01-15T15:01:13;-0.30;99.90
26224;DHT22;14820;48.682;8.890;2024-01-15T15:03:39;-0.30;99.90
26224;DHT22;14820;48.682;8.890;2024-01-15T15:06:06;-0.30;99.90
26224;DHT22;14820;48.682;8.890;2024-01-15T15:08:34;-0.40;99.90
26224;DHT22;14820;48.682;8.890;2024-01-15T15:11:00;-0.40;99.90
26224;DHT22;14820;48.682;8.890;2024-01-15T15:13:26;-0.40;99.90
26224;DHT22;14820;48.682;8.890;2024-01-15T15:15:53;-0.40;99.90
26224;DHT22;14820;48.682;8.890;2024-01-15T15:18:22;-0.40;99.90
26224;DHT22;14820;48.682;8.890;2024-01-15T15:20:48;-0.30;99.90
26224;DHT22;14820;48.682;8.890;2024-01-15T15:23:15;-0.30;99.90
26224;DHT22;14820;48.682;8.890;2024-01-15T15:25:41;-0.40;99.90
26224;DHT22;14820;48.682;8.890;2024-01-15T15:28:08;-0.40;99.90
26224;DHT22;14820;48.682;8.890;2024-01-15T15:30:35;-0.40;99.90
26224;DHT22;14820;48.682;8.890;2024-01-15T15:33:01;-0.40;99.90
26224;DHT22;14820;48.682;8.890;2024-01-15T15:35:26;-0.40;99.90
26224;DHT22;14820;48.682;8.890;2024-01-15T15:37:52;-0.40;99.90
26224;DHT22;14820;48.682;8.890;2024-01-15T15:40:17;-0.50;99.90
26224;DHT22;14820;48.682;8.890;2024-01-15T15:42:43;-0.50;99.90